createdAt,value
2023-02-26T00:00:15.141Z,4.20
2023-02-26T00:00:26.993Z,4.20
2023-02-26T00:00:39.289Z,4.20
2023-02-26T00:00:51.005Z,4.20
2023-02-26T00:01:03.710Z,4.20
2023-02-26T00:01:16.607Z,4.20
2023-02-26T00:01:30.082Z,4.20
2023-02-26T00:01:41.983Z,4.20
2023-02-26T00:02:01.567Z,4.20
2023-02-26T00:02:13.389Z,4.20
2023-02-26T00:02:25.242Z,4.20
2023-02-26T00:02:37.117Z,4.20
2023-02-26T00:02:49.248Z,4.20
2023-02-26T00:03:01.688Z,4.20
2023-02-26T00:03:13.474Z,4.20
2023-02-26T00:03:25.492Z,4.20
2023-02-26T00:03:37.326Z,4.20
2023-02-26T00:03:52.901Z,4.20
2023-02-26T00:04:05.407Z,4.20
2023-02-26T00:04:17.162Z,4.20
2023-02-26T00:04:28.912Z,4.20
2023-02-26T00:04:41.753Z,4.20
2023-02-26T00:04:53.499Z,4.20
2023-02-26T00:05:05.895Z,4.20
2023-02-26T00:05:17.756Z,4.20
2023-02-26T00:05:29.524Z,4.10
2023-02-26T00:05:41.217Z,4.20
2023-02-26T00:05:53.027Z,4.20
2023-02-26T00:06:05.037Z,4.20
2023-02-26T00:06:16.785Z,4.10
2023-02-26T00:06:29.248Z,4.20
2023-02-26T00:06:53.346Z,4.10
2023-02-26T00:07:09.809Z,4.20
2023-02-26T00:07:21.608Z,4.10
2023-02-26T00:07:33.374Z,4.10
2023-02-26T00:07:45.299Z,4.10
2023-02-26T00:07:57.312Z,4.10
2023-02-26T00:08:09.307Z,4.10
2023-02-26T00:08:21.004Z,4.10
2023-02-26T00:08:32.745Z,4.10
2023-02-26T00:08:44.834Z,4.10
2023-02-26T00:08:56.721Z,4.10
2023-02-26T00:09:08.591Z,4.10
2023-02-26T00:09:20.830Z,4.10
2023-02-26T00:09:32.679Z,4.10
2023-02-26T00:09:44.473Z,4.10
2023-02-26T00:09:56.558Z,4.10
2023-02-26T00:10:10.045Z,4.10
2023-02-26T00:10:21.818Z,4.10
2023-02-26T00:10:33.646Z,4.10
2023-02-26T00:10:45.708Z,4.10
2023-02-26T00:10:58.403Z,4.10
2023-02-26T00:11:10.825Z,4.10
2023-02-26T00:11:22.689Z,4.10
2023-02-26T00:11:34.657Z,4.10
2023-02-26T00:11:46.718Z,4.10
2023-02-26T00:11:59.340Z,4.10
2023-02-26T00:12:12.137Z,4.10
2023-02-26T00:12:24.120Z,4.10
2023-02-26T00:12:35.950Z,4.10
2023-02-26T00:12:48.009Z,4.10
2023-02-26T00:12:59.992Z,4.10
2023-02-26T00:13:11.985Z,4.10
2023-02-26T00:13:24.368Z,4.10
2023-02-26T00:13:37.034Z,4.00
2023-02-26T00:13:49.173Z,4.00
2023-02-26T00:14:01.591Z,4.10
2023-02-26T00:14:14.714Z,4.00
2023-02-26T00:14:26.961Z,4.10
2023-02-26T00:14:38.910Z,4.00
2023-02-26T00:14:51.227Z,4.00
2023-02-26T00:15:03.912Z,4.00
2023-02-26T00:15:17.738Z,4.00
2023-02-26T00:15:29.822Z,4.00
2023-02-26T00:15:41.986Z,4.00
2023-02-26T00:15:59.372Z,4.00
2023-02-26T00:16:32.759Z,4.00
2023-02-26T00:16:47.043Z,4.10
2023-02-26T00:17:42.107Z,4.10
2023-02-26T00:18:01.895Z,4.00
2023-02-26T00:18:14.240Z,4.00
2023-02-26T00:18:26.089Z,4.10
2023-02-26T00:18:38.139Z,4.00
2023-02-26T00:18:50.012Z,4.00
2023-02-26T00:19:04.095Z,4.00
2023-02-26T00:19:16.103Z,4.00
2023-02-26T00:19:27.905Z,4.00
2023-02-26T00:19:39.783Z,4.00
2023-02-26T00:19:51.722Z,4.00
2023-02-26T00:20:04.619Z,4.00
2023-02-26T00:20:19.766Z,3.90
2023-02-26T00:20:31.801Z,4.00
2023-02-26T00:20:44.121Z,4.00
2023-02-26T00:20:56.248Z,4.00
2023-02-26T00:21:08.576Z,4.00
2023-02-26T00:21:21.272Z,4.00
2023-02-26T00:21:33.569Z,4.00
2023-02-26T00:21:45.622Z,4.00
2023-02-26T00:21:57.686Z,4.00
2023-02-26T00:22:09.864Z,3.90
2023-02-26T00:22:21.904Z,3.90
2023-02-26T00:22:33.879Z,3.90
2023-02-26T00:22:45.971Z,4.00
2023-02-26T00:22:57.897Z,3.90
2023-02-26T00:23:14.576Z,3.90
2023-02-26T00:23:26.622Z,4.00
2023-02-26T00:23:38.552Z,4.00
2023-02-26T00:23:50.478Z,4.00
2023-02-26T00:24:02.390Z,3.90
2023-02-26T00:24:14.155Z,3.90
2023-02-26T00:24:25.964Z,3.90
2023-02-26T00:24:37.655Z,3.90
2023-02-26T00:24:49.378Z,3.90
2023-02-26T00:25:01.102Z,3.90
2023-02-26T00:25:12.983Z,3.90
2023-02-26T00:25:24.770Z,3.90
2023-02-26T00:25:36.472Z,3.90
2023-02-26T00:25:48.162Z,3.90
2023-02-26T00:25:59.928Z,3.90
2023-02-26T00:26:11.692Z,3.90
2023-02-26T00:26:24.213Z,3.80
2023-02-26T00:26:35.996Z,3.90
2023-02-26T00:26:47.713Z,3.80
2023-02-26T00:27:00.348Z,3.80
2023-02-26T00:27:12.062Z,3.80
2023-02-26T00:27:23.890Z,3.80
2023-02-26T00:27:36.209Z,3.80
2023-02-26T00:27:48.263Z,3.80
2023-02-26T00:28:00.147Z,3.80
2023-02-26T00:28:12.441Z,3.80
2023-02-26T00:28:24.750Z,3.80
2023-02-26T00:28:36.873Z,3.80
2023-02-26T00:28:50.032Z,3.80
2023-02-26T00:29:02.577Z,3.80
2023-02-26T00:29:14.598Z,3.80
2023-02-26T00:29:26.757Z,3.80
2023-02-26T00:29:39.018Z,3.80
2023-02-26T00:29:51.246Z,3.80
2023-02-26T00:30:06.661Z,3.80
2023-02-26T00:30:19.266Z,3.80
2023-02-26T00:30:31.411Z,3.90
2023-02-26T00:30:43.423Z,3.80
2023-02-26T00:30:55.515Z,3.90
2023-02-26T00:31:07.994Z,3.90
2023-02-26T00:31:26.319Z,3.80
2023-02-26T00:31:38.436Z,3.80
2023-02-26T00:31:50.605Z,3.80
2023-02-26T00:32:02.714Z,3.80
2023-02-26T00:32:18.085Z,3.90
2023-02-26T00:32:32.025Z,3.80
2023-02-26T00:32:44.755Z,3.80
2023-02-26T00:32:56.805Z,3.80
2023-02-26T00:33:08.840Z,3.90
2023-02-26T00:33:20.941Z,3.90
2023-02-26T00:33:33.067Z,3.80
2023-02-26T00:33:45.092Z,3.80
2023-02-26T00:33:57.313Z,3.80
2023-02-26T00:34:11.870Z,3.80
2023-02-26T00:34:23.860Z,3.90
2023-02-26T00:34:35.918Z,3.80
2023-02-26T00:34:48.041Z,3.80
2023-02-26T00:35:00.011Z,3.80
2023-02-26T00:35:13.744Z,3.80
2023-02-26T00:35:25.788Z,3.80
2023-02-26T00:35:37.791Z,3.80
2023-02-26T00:35:50.324Z,3.80
2023-02-26T00:36:20.713Z,3.80
2023-02-26T00:36:35.002Z,3.80
2023-02-26T00:37:07.213Z,3.80
2023-02-26T00:37:18.875Z,3.80
2023-02-26T00:37:57.730Z,3.80
2023-02-26T00:38:10.155Z,3.80
2023-02-26T00:38:21.940Z,3.80
2023-02-26T00:38:33.711Z,3.80
2023-02-26T00:38:45.480Z,3.80
2023-02-26T00:38:57.116Z,3.80
2023-02-26T00:39:39.025Z,3.80
2023-02-26T00:39:50.702Z,3.80
2023-02-26T00:40:39.585Z,3.80
2023-02-26T00:40:54.166Z,3.80
2023-02-26T00:41:08.003Z,3.80
2023-02-26T00:41:20.195Z,3.80
2023-02-26T00:41:32.322Z,3.80
2023-02-26T00:41:44.490Z,3.80
2023-02-26T00:41:56.460Z,3.80
2023-02-26T00:42:08.538Z,3.80
2023-02-26T00:42:20.578Z,3.80
2023-02-26T00:42:32.884Z,3.80
2023-02-26T00:42:44.968Z,3.80
2023-02-26T00:42:57.010Z,3.80
2023-02-26T00:43:13.839Z,3.80
2023-02-26T00:43:28.937Z,3.80
2023-02-26T00:43:40.938Z,3.80
2023-02-26T00:43:52.885Z,3.80
2023-02-26T00:44:04.918Z,3.80
2023-02-26T00:44:17.037Z,3.80
2023-02-26T00:44:29.121Z,3.80
2023-02-26T00:44:41.337Z,3.80
2023-02-26T00:44:53.648Z,3.80
2023-02-26T00:45:06.064Z,3.80
2023-02-26T00:45:18.181Z,3.80
2023-02-26T00:45:30.445Z,3.80
2023-02-26T00:45:45.849Z,3.80
2023-02-26T00:46:18.600Z,3.80
2023-02-26T00:46:39.033Z,3.80
2023-02-26T00:47:23.307Z,3.80
2023-02-26T00:47:51.470Z,3.80
2023-02-26T00:48:14.870Z,3.80
2023-02-26T00:48:30.030Z,3.80
2023-02-26T00:48:53.182Z,3.80
2023-02-26T00:49:21.011Z,3.80
2023-02-26T00:49:55.941Z,3.80
2023-02-26T00:50:10.233Z,3.80
2023-02-26T00:50:23.655Z,3.80
2023-02-26T00:50:35.699Z,3.80
2023-02-26T00:50:56.839Z,3.80
2023-02-26T00:51:19.514Z,3.80
2023-02-26T00:51:34.642Z,3.80
2023-02-26T00:51:54.338Z,3.80
2023-02-26T00:52:06.536Z,3.80
2023-02-26T00:52:29.258Z,3.80
2023-02-26T00:52:47.076Z,3.80
2023-02-26T00:53:14.588Z,3.80
2023-02-26T00:53:34.305Z,3.80
2023-02-26T00:54:12.562Z,3.80
2023-02-26T00:54:25.821Z,3.80
2023-02-26T00:54:37.510Z,3.80
2023-02-26T00:54:49.240Z,3.80
2023-02-26T00:55:00.948Z,3.80
2023-02-26T00:55:12.760Z,3.80
2023-02-26T00:55:24.482Z,3.80
2023-02-26T00:55:36.231Z,3.80
2023-02-26T00:55:47.975Z,3.80
2023-02-26T00:55:59.751Z,3.80
2023-02-26T00:56:11.522Z,3.80
2023-02-26T00:56:23.392Z,3.80
2023-02-26T00:56:35.184Z,3.80
2023-02-26T00:56:47.975Z,3.80
2023-02-26T00:56:59.804Z,3.80
2023-02-26T00:57:11.620Z,3.80
2023-02-26T00:57:23.416Z,3.80
2023-02-26T00:57:35.238Z,3.80
2023-02-26T00:57:47.023Z,3.80
2023-02-26T00:57:58.927Z,3.80
2023-02-26T00:58:10.668Z,3.80
2023-02-26T00:58:22.816Z,3.80
2023-02-26T00:58:34.584Z,3.80
2023-02-26T00:58:46.357Z,3.80
2023-02-26T00:58:58.197Z,3.80
2023-02-26T00:59:09.920Z,3.80
2023-02-26T00:59:21.864Z,3.80
2023-02-26T00:59:33.672Z,3.80
2023-02-26T00:59:45.413Z,3.80
2023-02-26T00:59:57.181Z,3.80
2023-02-26T01:00:09.609Z,3.80
2023-02-26T01:00:21.676Z,3.80
2023-02-26T01:00:33.382Z,3.80
2023-02-26T01:00:45.138Z,3.80
2023-02-26T01:00:56.925Z,3.80
2023-02-26T01:01:08.815Z,3.80
2023-02-26T01:01:20.542Z,3.80
2023-02-26T01:01:32.389Z,3.80
2023-02-26T01:01:44.343Z,3.80
2023-02-26T01:01:56.050Z,3.80
2023-02-26T01:02:07.813Z,3.80
2023-02-26T01:02:19.572Z,3.80
2023-02-26T01:02:31.706Z,3.80
2023-02-26T01:02:43.921Z,3.80
2023-02-26T01:02:55.959Z,3.80
2023-02-26T01:03:08.090Z,3.80
2023-02-26T01:03:20.063Z,3.80
2023-02-26T01:03:32.718Z,3.80
2023-02-26T01:03:44.822Z,3.80
2023-02-26T01:03:56.899Z,3.80
2023-02-26T01:04:09.219Z,3.80
2023-02-26T01:04:22.259Z,3.80
2023-02-26T01:04:34.335Z,3.80
2023-02-26T01:04:47.066Z,3.80
2023-02-26T01:04:59.207Z,3.80
2023-02-26T01:05:11.573Z,3.80
2023-02-26T01:05:23.636Z,3.80
2023-02-26T01:05:35.571Z,3.80
2023-02-26T01:05:47.513Z,3.80
2023-02-26T01:05:59.474Z,3.80
2023-02-26T01:06:14.448Z,3.80
2023-02-26T01:06:28.704Z,3.80
2023-02-26T01:06:43.863Z,3.80
2023-02-26T01:06:57.548Z,3.80
2023-02-26T01:07:09.596Z,3.80
2023-02-26T01:07:24.471Z,3.80
2023-02-26T01:07:44.737Z,3.80
2023-02-26T01:08:10.267Z,3.80
2023-02-26T01:08:45.076Z,3.80
2023-02-26T01:09:15.521Z,3.80
2023-02-26T01:09:33.309Z,3.80
2023-02-26T01:09:45.295Z,3.80
2023-02-26T01:09:57.289Z,3.80
2023-02-26T01:10:11.203Z,3.80
2023-02-26T01:10:23.478Z,3.80
2023-02-26T01:10:35.523Z,3.80
2023-02-26T01:10:47.528Z,3.80
2023-02-26T01:10:59.623Z,3.80
2023-02-26T01:11:11.698Z,3.80
2023-02-26T01:11:23.609Z,3.80
2023-02-26T01:11:35.654Z,3.80
2023-02-26T01:11:47.580Z,3.80
2023-02-26T01:12:01.700Z,3.80
2023-02-26T01:12:13.972Z,3.80
2023-02-26T01:12:25.992Z,3.80
2023-02-26T01:12:38.052Z,3.80
2023-02-26T01:12:50.089Z,3.80
2023-02-26T01:13:02.035Z,3.80
2023-02-26T01:13:13.921Z,3.80
2023-02-26T01:13:25.873Z,3.80
2023-02-26T01:13:37.718Z,3.80
2023-02-26T01:13:49.782Z,3.80
2023-02-26T01:14:02.535Z,3.80
2023-02-26T01:14:14.526Z,3.80
2023-02-26T01:14:27.581Z,3.80
2023-02-26T01:14:39.788Z,3.80
2023-02-26T01:14:52.408Z,3.80
2023-02-26T01:15:04.957Z,3.80
2023-02-26T01:15:17.046Z,3.80
2023-02-26T01:15:29.287Z,3.80
2023-02-26T01:15:41.945Z,3.80
2023-02-26T01:15:57.461Z,3.80
2023-02-26T01:16:12.660Z,3.80
2023-02-26T01:16:27.795Z,3.80
2023-02-26T01:17:03.929Z,3.80
2023-02-26T01:17:23.130Z,3.80
2023-02-26T01:17:58.645Z,3.70
2023-02-26T01:18:28.571Z,3.70
2023-02-26T01:18:53.906Z,3.70
2023-02-26T01:19:18.570Z,3.70
2023-02-26T01:19:37.168Z,3.70
2023-02-26T01:19:54.627Z,3.70
2023-02-26T01:20:27.076Z,3.70
2023-02-26T01:20:43.361Z,3.70
2023-02-26T01:20:57.879Z,3.70
2023-02-26T01:21:12.754Z,3.70
2023-02-26T01:21:34.935Z,3.70
2023-02-26T01:21:49.508Z,3.70
2023-02-26T01:22:33.841Z,3.70
2023-02-26T01:22:53.154Z,3.70
2023-02-26T01:23:07.213Z,3.70
2023-02-26T01:23:23.015Z,3.70
2023-02-26T01:23:40.135Z,3.70
2023-02-26T01:23:52.249Z,3.70
2023-02-26T01:24:06.246Z,3.70
2023-02-26T01:24:18.218Z,3.70
2023-02-26T01:24:30.380Z,3.70
2023-02-26T01:24:42.144Z,3.70
2023-02-26T01:25:01.793Z,3.70
2023-02-26T01:25:16.593Z,3.70
2023-02-26T01:25:43.215Z,3.70
2023-02-26T01:26:20.319Z,3.70
2023-02-26T01:26:32.229Z,3.70
2023-02-26T01:26:44.180Z,3.60
2023-02-26T01:26:56.010Z,3.60
2023-02-26T01:27:08.055Z,3.60
2023-02-26T01:27:19.928Z,3.60
2023-02-26T01:27:31.818Z,3.60
2023-02-26T01:27:44.506Z,3.60
2023-02-26T01:27:59.096Z,3.60
2023-02-26T01:28:11.034Z,3.60
2023-02-26T01:28:22.935Z,3.60
2023-02-26T01:28:35.033Z,3.60
2023-02-26T01:28:46.972Z,3.60
2023-02-26T01:28:58.889Z,3.60
2023-02-26T01:29:10.935Z,3.60
2023-02-26T01:29:23.030Z,3.60
2023-02-26T01:29:34.896Z,3.60
2023-02-26T01:29:46.942Z,3.60
2023-02-26T01:29:59.022Z,3.60
2023-02-26T01:30:11.224Z,3.60
2023-02-26T01:30:23.609Z,3.60
2023-02-26T01:30:36.015Z,3.60
2023-02-26T01:30:48.040Z,3.60
2023-02-26T01:31:01.505Z,3.60
2023-02-26T01:31:34.874Z,3.60
2023-02-26T01:31:52.928Z,3.60
2023-02-26T01:32:06.822Z,3.60
2023-02-26T01:32:23.314Z,3.60
2023-02-26T01:32:37.707Z,3.60
2023-02-26T01:32:58.309Z,3.60
2023-02-26T01:33:26.216Z,3.60
2023-02-26T01:33:49.400Z,3.60
2023-02-26T01:34:05.250Z,3.60
2023-02-26T01:34:20.155Z,3.60
2023-02-26T01:34:52.446Z,3.60
2023-02-26T01:35:34.731Z,3.60
2023-02-26T01:36:03.716Z,3.60
2023-02-26T01:36:23.035Z,3.60
2023-02-26T01:36:39.349Z,3.60
2023-02-26T01:37:19.859Z,3.50
2023-02-26T01:37:51.378Z,3.60
2023-02-26T01:38:04.406Z,3.60
2023-02-26T01:38:50.397Z,3.60
2023-02-26T01:39:30.528Z,3.60
2023-02-26T01:40:09.697Z,3.60
2023-02-26T01:40:28.123Z,3.60
2023-02-26T01:40:58.237Z,3.60
2023-02-26T01:41:22.134Z,3.60
2023-02-26T01:42:06.176Z,3.60
2023-02-26T01:42:26.073Z,3.60
2023-02-26T01:42:37.919Z,3.60
2023-02-26T01:42:51.415Z,3.50
2023-02-26T01:43:16.827Z,3.60
2023-02-26T01:43:39.789Z,3.50
2023-02-26T01:43:53.872Z,3.60
2023-02-26T01:44:11.661Z,3.50
2023-02-26T01:44:30.244Z,3.50
2023-02-26T01:44:47.303Z,3.50
2023-02-26T01:45:12.276Z,3.50
2023-02-26T01:45:31.423Z,3.50
2023-02-26T01:46:25.695Z,3.50
2023-02-26T01:46:50.840Z,3.50
2023-02-26T01:47:28.753Z,3.50
2023-02-26T01:47:41.472Z,3.50
2023-02-26T01:48:03.870Z,3.50
2023-02-26T01:48:29.803Z,3.50
2023-02-26T01:48:56.143Z,3.50
2023-02-26T01:49:14.322Z,3.50
2023-02-26T01:49:26.396Z,3.50
2023-02-26T01:49:39.037Z,3.50
2023-02-26T01:49:51.020Z,3.50
2023-02-26T01:50:22.538Z,3.50
2023-02-26T01:50:37.602Z,3.50
2023-02-26T01:50:49.374Z,3.50
2023-02-26T01:51:01.184Z,3.50
2023-02-26T01:51:12.971Z,3.50
2023-02-26T01:51:45.725Z,3.50
2023-02-26T01:51:58.708Z,3.50
2023-02-26T01:52:31.858Z,3.40
2023-02-26T01:52:49.210Z,3.40
2023-02-26T01:53:19.830Z,3.40
2023-02-26T01:53:31.674Z,3.40
2023-02-26T01:53:43.451Z,3.40
2023-02-26T01:53:55.346Z,3.40
2023-02-26T01:54:07.139Z,3.40
2023-02-26T01:54:21.904Z,3.40
2023-02-26T01:54:35.482Z,3.40
2023-02-26T01:54:47.252Z,3.40
2023-02-26T01:54:59.004Z,3.40
2023-02-26T01:55:10.783Z,3.40
2023-02-26T01:55:24.147Z,3.40
2023-02-26T01:55:35.910Z,3.40
2023-02-26T01:55:50.761Z,3.40
2023-02-26T01:56:09.896Z,3.40
2023-02-26T01:56:21.637Z,3.40
2023-02-26T01:56:33.477Z,3.40
2023-02-26T01:56:45.854Z,3.40
2023-02-26T01:57:02.132Z,3.40
2023-02-26T01:57:15.946Z,3.40
2023-02-26T01:57:27.759Z,3.50
2023-02-26T01:57:39.489Z,3.40
2023-02-26T01:57:52.102Z,3.40
2023-02-26T01:58:03.880Z,3.40
2023-02-26T01:58:15.561Z,3.40
2023-02-26T01:58:28.690Z,3.40
2023-02-26T01:58:40.475Z,3.40
2023-02-26T01:58:53.479Z,3.40
2023-02-26T01:59:05.939Z,3.40
2023-02-26T01:59:18.099Z,3.40
2023-02-26T01:59:29.963Z,3.40
2023-02-26T01:59:43.909Z,3.40
2023-02-26T01:59:55.688Z,3.40
2023-02-26T02:00:08.014Z,3.40
2023-02-26T02:00:20.027Z,3.40
2023-02-26T02:00:31.815Z,3.40
2023-02-26T02:00:43.651Z,3.40
2023-02-26T02:00:55.498Z,3.40
2023-02-26T02:01:07.865Z,3.40
2023-02-26T02:01:19.673Z,3.40
2023-02-26T02:01:34.571Z,3.40
2023-02-26T02:01:46.329Z,3.40
2023-02-26T02:01:58.882Z,3.40
2023-02-26T02:02:11.644Z,3.40
2023-02-26T02:02:23.875Z,3.40
2023-02-26T02:02:35.744Z,3.40
2023-02-26T02:02:47.904Z,3.40
2023-02-26T02:02:59.836Z,3.40
2023-02-26T02:03:11.763Z,3.40
2023-02-26T02:03:23.802Z,3.40
2023-02-26T02:03:37.332Z,3.40
2023-02-26T02:03:49.286Z,3.40
2023-02-26T02:04:01.046Z,3.30
2023-02-26T02:04:14.720Z,3.30
2023-02-26T02:04:26.891Z,3.30
2023-02-26T02:04:38.991Z,3.30
2023-02-26T02:04:50.971Z,3.30
2023-02-26T02:05:09.890Z,3.30
2023-02-26T02:05:30.456Z,3.30
2023-02-26T02:05:45.306Z,3.30
2023-02-26T02:06:00.743Z,3.30
2023-02-26T02:06:18.025Z,3.30
2023-02-26T02:06:29.733Z,3.30
2023-02-26T02:06:41.569Z,3.30
2023-02-26T02:06:54.435Z,3.30
2023-02-26T02:07:06.497Z,3.30
2023-02-26T02:07:18.740Z,3.30
2023-02-26T02:07:30.839Z,3.30
2023-02-26T02:07:42.614Z,3.30
2023-02-26T02:07:54.532Z,3.30
2023-02-26T02:08:06.311Z,3.30
2023-02-26T02:08:19.449Z,3.30
2023-02-26T02:08:33.546Z,3.30
2023-02-26T02:08:45.574Z,3.30
2023-02-26T02:08:57.455Z,3.30
2023-02-26T02:09:09.422Z,3.30
2023-02-26T02:09:21.195Z,3.30
2023-02-26T02:09:32.935Z,3.30
2023-02-26T02:09:44.685Z,3.30
2023-02-26T02:09:56.404Z,3.30
2023-02-26T02:10:08.551Z,3.30
2023-02-26T02:10:20.574Z,3.30
2023-02-26T02:10:32.325Z,3.30
2023-02-26T02:10:44.639Z,3.30
2023-02-26T02:10:56.476Z,3.30
2023-02-26T02:11:09.867Z,3.30
2023-02-26T02:11:21.667Z,3.30
2023-02-26T02:11:33.652Z,3.30
2023-02-26T02:12:14.625Z,3.30
2023-02-26T02:12:39.395Z,3.30
2023-02-26T02:13:14.189Z,3.30
2023-02-26T02:13:51.670Z,3.30
2023-02-26T02:14:14.067Z,3.30
2023-02-26T02:14:36.527Z,3.30
2023-02-26T02:15:06.532Z,3.30
2023-02-26T02:16:54.486Z,3.20
2023-02-26T02:17:23.580Z,3.20
2023-02-26T02:17:53.918Z,3.20
2023-02-26T02:18:22.303Z,3.20
2023-02-26T02:18:53.073Z,3.20
2023-02-26T02:19:42.238Z,3.20
2023-02-26T02:20:06.434Z,3.10
2023-02-26T02:21:01.503Z,3.10
2023-02-26T02:21:28.988Z,3.10
2023-02-26T02:22:05.612Z,3.10
2023-02-26T02:22:45.225Z,3.10
2023-02-26T02:23:15.465Z,3.10
2023-02-26T02:23:48.603Z,3.10
2023-02-26T02:24:09.219Z,3.10
2023-02-26T02:24:36.797Z,3.10
2023-02-26T02:25:10.383Z,3.10
2023-02-26T02:25:40.466Z,3.10
2023-02-26T02:26:08.990Z,3.10
2023-02-26T02:26:29.538Z,3.10
2023-02-26T02:27:01.754Z,3.00
2023-02-26T02:27:19.507Z,3.00
2023-02-26T02:27:49.041Z,3.10
2023-02-26T02:28:15.622Z,3.00
2023-02-26T02:28:40.147Z,3.00
2023-02-26T02:29:09.193Z,3.10
2023-02-26T02:30:01.846Z,3.10
2023-02-26T02:30:29.411Z,3.10
2023-02-26T02:30:53.289Z,3.00
2023-02-26T02:31:07.279Z,3.00
2023-02-26T02:31:22.471Z,3.00
2023-02-26T02:31:36.036Z,3.00
2023-02-26T02:31:52.591Z,3.10
2023-02-26T02:32:08.650Z,3.10
2023-02-26T02:32:27.785Z,3.00
2023-02-26T02:32:42.088Z,3.00
2023-02-26T02:33:14.176Z,3.00
2023-02-26T02:33:30.858Z,3.00
2023-02-26T02:34:50.087Z,3.00
2023-02-26T02:35:12.796Z,3.00
2023-02-26T02:35:28.364Z,3.00
2023-02-26T02:35:52.334Z,3.00
2023-02-26T02:36:07.929Z,2.90
2023-02-26T02:36:43.533Z,2.90
2023-02-26T02:36:58.759Z,2.90
2023-02-26T02:37:20.693Z,2.90
2023-02-26T02:37:47.434Z,2.90
2023-02-26T02:38:07.976Z,2.90
2023-02-26T02:38:28.478Z,2.90
2023-02-26T02:38:45.930Z,2.90
2023-02-26T02:39:01.200Z,2.90
2023-02-26T02:39:31.158Z,2.90
2023-02-26T02:40:28.374Z,2.90
2023-02-26T02:40:43.546Z,2.90
2023-02-26T02:41:18.425Z,2.90
2023-02-26T02:41:43.050Z,2.90
2023-02-26T02:41:57.335Z,2.90
2023-02-26T02:42:39.769Z,2.90
2023-02-26T02:42:56.505Z,2.90
2023-02-26T02:43:11.349Z,2.90
2023-02-26T02:43:25.555Z,2.90
2023-02-26T02:43:38.613Z,2.90
2023-02-26T02:43:50.592Z,2.90
2023-02-26T02:44:04.363Z,2.90
2023-02-26T02:44:17.736Z,2.90
2023-02-26T02:44:29.839Z,2.90
2023-02-26T02:44:43.672Z,2.90
2023-02-26T02:45:02.299Z,2.90
2023-02-26T02:45:19.222Z,2.90
2023-02-26T02:45:44.318Z,2.90
2023-02-26T02:46:11.642Z,2.90
2023-02-26T02:46:26.988Z,2.90
2023-02-26T02:46:39.623Z,2.90
2023-02-26T02:46:52.941Z,2.90
2023-02-26T02:47:04.840Z,2.80
2023-02-26T02:47:17.177Z,2.80
2023-02-26T02:47:29.528Z,2.80
2023-02-26T02:47:42.197Z,2.90
2023-02-26T02:48:00.609Z,2.80
2023-02-26T02:48:17.150Z,2.80
2023-02-26T02:48:47.738Z,2.80
2023-02-26T02:49:11.328Z,2.80
2023-02-26T02:49:31.601Z,2.80
2023-02-26T02:49:47.173Z,2.80
2023-02-26T02:50:05.274Z,2.80
2023-02-26T02:50:28.177Z,2.80
2023-02-26T02:50:43.656Z,2.80
2023-02-26T02:51:00.501Z,2.80
2023-02-26T02:51:14.806Z,2.80
2023-02-26T02:51:30.062Z,2.90
2023-02-26T02:51:44.495Z,2.80
2023-02-26T02:52:00.681Z,2.80
2023-02-26T02:52:17.573Z,2.80
2023-02-26T02:52:46.288Z,2.80
2023-02-26T02:53:01.086Z,2.80
2023-02-26T02:53:45.428Z,2.90
2023-02-26T02:54:24.975Z,2.80
2023-02-26T02:54:44.966Z,2.80
2023-02-26T02:55:00.275Z,2.80
2023-02-26T02:55:18.527Z,2.80
2023-02-26T02:55:33.444Z,2.80
2023-02-26T02:55:50.677Z,2.80
2023-02-26T02:56:16.271Z,2.80
2023-02-26T02:56:34.975Z,2.80
2023-02-26T02:56:56.585Z,2.80
2023-02-26T02:57:12.065Z,2.80
2023-02-26T02:57:50.211Z,2.80
2023-02-26T02:58:04.656Z,2.80
2023-02-26T02:58:22.338Z,2.80
2023-02-26T02:58:40.461Z,2.80
2023-02-26T02:59:06.853Z,2.80
2023-02-26T02:59:20.781Z,2.80
2023-02-26T02:59:44.182Z,2.80
2023-02-26T02:59:58.250Z,2.80
2023-02-26T03:00:11.262Z,2.80
2023-02-26T03:00:23.052Z,2.80
2023-02-26T03:00:36.332Z,2.80
2023-02-26T03:00:50.370Z,2.80
2023-02-26T03:01:03.545Z,2.80
2023-02-26T03:01:16.450Z,2.80
2023-02-26T03:01:28.225Z,2.80
2023-02-26T03:01:39.985Z,2.70
2023-02-26T03:01:57.128Z,2.80
2023-02-26T03:02:09.002Z,2.80
2023-02-26T03:02:32.313Z,2.70
2023-02-26T03:02:49.374Z,2.70
2023-02-26T03:03:06.965Z,2.70
2023-02-26T03:03:41.061Z,2.80
2023-02-26T03:04:06.368Z,2.80
2023-02-26T03:04:18.072Z,2.80
2023-02-26T03:04:30.122Z,2.70
2023-02-26T03:04:41.994Z,2.80
2023-02-26T03:04:53.821Z,2.80
2023-02-26T03:05:05.806Z,2.70
2023-02-26T03:05:17.566Z,2.80
2023-02-26T03:05:29.301Z,2.80
2023-02-26T03:05:40.987Z,2.80
2023-02-26T03:05:52.658Z,2.80
2023-02-26T03:06:04.679Z,2.70
2023-02-26T03:06:17.821Z,2.70
2023-02-26T03:06:29.598Z,2.80
2023-02-26T03:06:41.613Z,2.70
2023-02-26T03:06:53.820Z,2.70
2023-02-26T03:07:05.574Z,2.70
2023-02-26T03:07:17.311Z,2.70
2023-02-26T03:07:31.282Z,2.70
2023-02-26T03:07:49.734Z,2.70
2023-02-26T03:08:11.058Z,2.70
2023-02-26T03:08:26.708Z,2.70
2023-02-26T03:08:41.336Z,2.70
2023-02-26T03:08:53.241Z,2.70
2023-02-26T03:09:06.491Z,2.70
2023-02-26T03:09:18.259Z,2.70
2023-02-26T03:09:29.923Z,2.70
2023-02-26T03:09:42.467Z,2.70
2023-02-26T03:09:55.148Z,2.70
2023-02-26T03:10:07.702Z,2.70
2023-02-26T03:10:19.757Z,2.60
2023-02-26T03:10:31.539Z,2.60
2023-02-26T03:10:43.390Z,2.60
2023-02-26T03:10:55.199Z,2.70
2023-02-26T03:11:07.932Z,2.60
2023-02-26T03:11:19.921Z,2.60
2023-02-26T03:11:32.505Z,2.60
2023-02-26T03:11:44.280Z,2.60
2023-02-26T03:11:55.986Z,2.60
2023-02-26T03:12:07.805Z,2.60
2023-02-26T03:12:19.541Z,2.60
2023-02-26T03:12:31.652Z,2.60
2023-02-26T03:12:43.407Z,2.60
2023-02-26T03:12:55.222Z,2.60
2023-02-26T03:13:06.966Z,2.60
2023-02-26T03:13:21.156Z,2.60
2023-02-26T03:13:32.970Z,2.60
2023-02-26T03:13:44.918Z,2.60
2023-02-26T03:13:56.611Z,2.60
2023-02-26T03:14:10.233Z,2.60
2023-02-26T03:14:22.287Z,2.60
2023-02-26T03:14:34.083Z,2.60
2023-02-26T03:14:45.853Z,2.50
2023-02-26T03:14:57.645Z,2.60
2023-02-26T03:15:09.896Z,2.60
2023-02-26T03:15:35.755Z,2.60
2023-02-26T03:16:18.117Z,2.60
2023-02-26T03:16:35.093Z,2.60
2023-02-26T03:17:14.161Z,2.60
2023-02-26T03:17:51.264Z,2.60
2023-02-26T03:18:15.325Z,2.60
2023-02-26T03:18:27.100Z,2.60
2023-02-26T03:18:50.878Z,2.60
2023-02-26T03:19:20.714Z,2.60
2023-02-26T03:19:56.774Z,2.60
2023-02-26T03:20:20.865Z,2.60
2023-02-26T03:20:35.334Z,2.60
2023-02-26T03:21:13.023Z,2.60
2023-02-26T03:21:31.861Z,2.60
2023-02-26T03:21:53.635Z,2.60
2023-02-26T03:22:26.314Z,2.60
2023-02-26T03:22:46.641Z,2.60
2023-02-26T03:23:22.229Z,2.60
2023-02-26T03:23:42.163Z,2.60
2023-02-26T03:23:56.957Z,2.60
2023-02-26T03:24:11.693Z,2.60
2023-02-26T03:24:37.500Z,2.60
2023-02-26T03:25:01.921Z,2.60
2023-02-26T03:25:16.427Z,2.60
2023-02-26T03:25:46.138Z,2.60
2023-02-26T03:26:12.743Z,2.50
2023-02-26T03:26:34.828Z,2.50
2023-02-26T03:27:01.378Z,2.50
2023-02-26T03:27:24.850Z,2.50
2023-02-26T03:27:55.279Z,2.50
2023-02-26T03:28:08.966Z,2.50
2023-02-26T03:28:31.133Z,2.50
2023-02-26T03:28:52.864Z,2.50
2023-02-26T03:29:11.191Z,2.50
2023-02-26T03:29:40.939Z,2.50
2023-02-26T03:30:03.288Z,2.50
2023-02-26T03:30:16.733Z,2.50
2023-02-26T03:30:50.104Z,2.50
2023-02-26T03:31:07.822Z,2.50
2023-02-26T03:31:29.990Z,2.50
2023-02-26T03:32:20.353Z,2.50
2023-02-26T03:33:03.858Z,2.50
2023-02-26T03:33:38.719Z,2.50
2023-02-26T03:34:04.888Z,2.50
2023-02-26T03:34:28.674Z,2.50
2023-02-26T03:34:43.974Z,2.50
2023-02-26T03:35:26.763Z,2.40
2023-02-26T03:36:01.256Z,2.50
2023-02-26T03:36:24.661Z,2.50
2023-02-26T03:36:39.559Z,2.50
2023-02-26T03:37:09.552Z,2.50
2023-02-26T03:37:42.084Z,2.50
2023-02-26T03:37:57.248Z,2.40
2023-02-26T03:38:11.810Z,2.50
2023-02-26T03:38:45.305Z,2.40
2023-02-26T03:39:06.849Z,2.40
2023-02-26T03:39:22.169Z,2.40
2023-02-26T03:39:37.943Z,2.40
2023-02-26T03:39:56.839Z,2.40
2023-02-26T03:40:11.735Z,2.40
2023-02-26T03:40:30.370Z,2.40
2023-02-26T03:40:46.011Z,2.40
2023-02-26T03:41:07.498Z,2.40
2023-02-26T03:41:40.964Z,2.40
2023-02-26T03:42:10.260Z,2.40
2023-02-26T03:42:26.732Z,2.40
2023-02-26T03:42:45.204Z,2.40
2023-02-26T03:43:05.238Z,2.40
2023-02-26T03:43:23.392Z,2.40
2023-02-26T03:43:49.176Z,2.40
2023-02-26T03:44:07.558Z,2.40
2023-02-26T03:44:24.434Z,2.40
2023-02-26T03:45:04.851Z,2.40
2023-02-26T03:45:18.518Z,2.40
2023-02-26T03:45:36.693Z,2.40
2023-02-26T03:45:49.401Z,2.40
2023-02-26T03:46:03.838Z,2.40
2023-02-26T03:46:18.386Z,2.40
2023-02-26T03:46:33.567Z,2.40
2023-02-26T03:46:51.500Z,2.40
2023-02-26T03:47:06.096Z,2.40
2023-02-26T03:47:17.801Z,2.40
2023-02-26T03:47:29.747Z,2.40
2023-02-26T03:47:43.103Z,2.30
2023-02-26T03:47:54.927Z,2.40
2023-02-26T03:48:08.563Z,2.40
2023-02-26T03:48:22.522Z,2.40
2023-02-26T03:48:34.527Z,2.30
2023-02-26T03:48:46.715Z,2.30